Time;durP1;ratioP1;P1;durP2;ratioP2;P2;SDS_P1;SDS_P2;PMS_P1;PMS_P2;Temp;Humidity;BMP_temperature;BMP_pressure;BME280_temperature;BME280_humidity;BME280_pressure;Samples;Min_cycle;Max_cycle;Signal;HPM_P1;HPM_P2
2023/04/03 00:01:20;;;;;;;3.10;1.27;;;;;;;;;;5017549;28;20053;-76
2023/04/03 00:03:46;;;;;;;1.58;1.05;;;;;;;;;;5012419;28;21014;-77
2023/04/03 00:06:12;;;;;;;2.20;1.02;;;;;;;;;;5009622;28;22410;-77
2023/04/03 00:08:40;;;;;;;2.25;1.17;;;;;;;;;;4989357;28;20072;-77
2023/04/03 00:11:06;;;;;;;3.95;1.40;;;;;;;;;;4995209;28;20052;-76
2023/04/03 00:13:33;;;;;;;5.07;1.42;;;;;;;;;;5007397;28;21885;-76
2023/04/03 00:15:59;;;;;;;1.95;1.17;;;;;;;;;;4995717;28;20089;-76
2023/04/03 00:18:25;;;;;;;3.03;1.10;;;;;;;;;;5014855;28;20143;-77
2023/04/03 00:20:51;;;;;;;4.57;0.90;;;;;;;;;;5011721;28;20662;-76
2023/04/03 00:23:17;;;;;;;2.92;1.35;;;;;;;;;;5012375;28;20629;-79
2023/04/03 00:25:43;;;;;;;2.63;1.38;;;;;;;;;;5009340;28;20097;-77
2023/04/03 00:28:09;;;;;;;3.20;1.40;;;;;;;;;;5009540;28;20133;-77
2023/04/03 00:30:35;;;;;;;3.10;1.23;;;;;;;;;;5005801;28;20037;-77
2023/04/03 00:33:02;;;;;;;2.90;1.02;;;;;;;;;;5008403;28;20086;-76
2023/04/03 00:35:28;;;;;;;2.97;1.10;;;;;;;;;;5030028;28;20693;-77
2023/04/03 00:37:55;;;;;;;3.10;1.13;;;;;;;;;;5013689;28;20051;-77
2023/04/03 00:40:23;;;;;;;4.43;2.08;;;;;;;;;;5014866;28;20049;-77
2023/04/03 00:42:51;;;;;;;4.10;1.10;;;;;;;;;;5010296;28;20059;-76
2023/04/03 00:45:26;;;;;;;2.65;1.30;;;;;;;;;;4992762;28;20172;-77
2023/04/03 00:47:52;;;;;;;2.95;1.10;;;;;;;;;;5011583;28;20105;-76
2023/04/03 00:50:18;;;;;;;2.30;1.52;;;;;;;;;;5005987;28;20110;-78
2023/04/03 00:52:46;;;;;;;2.88;1.10;;;;;;;;;;5013634;28;20141;-76
2023/04/03 00:55:14;;;;;;;4.82;1.30;;;;;;;;;;5015163;28;21255;-77
2023/04/03 00:57:41;;;;;;;7.32;3.40;;;;;;;;;;5012758;28;20141;-76
2023/04/03 01:00:09;;;;;;;3.70;1.27;;;;;;;;;;5012607;28;20057;-77
2023/04/03 01:02:36;;;;;;;4.03;1.40;;;;;;;;;;5012822;28;20906;-76
2023/04/03 01:05:02;;;;;;;2.78;1.33;;;;;;;;;;5018571;28;20294;-77
2023/04/03 01:07:30;;;;;;;3.35;1.05;;;;;;;;;;5012090;28;20049;-77
2023/04/03 01:10:00;;;;;;;4.18;1.33;;;;;;;;;;5014625;28;20118;-77
2023/04/03 01:12:28;;;;;;;2.80;1.38;;;;;;;;;;5018838;28;20052;-77
2023/04/03 01:14:56;;;;;;;7.45;1.33;;;;;;;;;;4993561;28;20091;-76
2023/04/03 01:17:30;;;;;;;2.28;1.30;;;;;;;;;;5012293;28;20053;-76
2023/04/03 01:20:15;;;;;;;5.65;1.58;;;;;;;;;;5014664;28;20064;-77
2023/04/03 01:22:47;;;;;;;3.83;1.33;;;;;;;;;;5009364;28;20588;-77
2023/04/03 01:25:13;;;;;;;1.85;1.20;;;;;;;;;;5012503;28;20045;-77
2023/04/03 01:27:39;;;;;;;5.93;1.38;;;;;;;;;;5012610;28;20045;-76
2023/04/03 01:30:06;;;;;;;4.28;1.42;;;;;;;;;;5000321;28;20105;-77
2023/04/03 01:32:32;;;;;;;3.47;1.30;;;;;;;;;;5012248;28;20444;-77
2023/04/03 01:34:58;;;;;;;4.97;1.60;;;;;;;;;;5012879;28;20041;-77
2023/04/03 01:37:24;;;;;;;3.72;1.40;;;;;;;;;;5017355;28;20052;-77
2023/04/03 01:39:50;;;;;;;3.22;1.40;;;;;;;;;;5020097;28;20045;-77
2023/04/03 01:42:17;;;;;;;3.60;1.70;;;;;;;;;;5020222;28;22314;-77
2023/04/03 01:44:43;;;;;;;7.82;1.52;;;;;;;;;;5018620;28;20077;-76
2023/04/03 01:47:09;;;;;;;3.20;1.40;;;;;;;;;;5018934;28;20049;-77
2023/04/03 01:49:35;;;;;;;2.88;1.30;;;;;;;;;;5016839;28;20276;-77
2023/04/03 01:52:01;;;;;;;5.20;1.65;;;;;;;;;;5017775;28;20045;-77
2023/04/03 01:54:27;;;;;;;2.50;1.40;;;;;;;;;;5020456;28;20049;-77
2023/04/03 01:56:53;;;;;;;5.95;1.67;;;;;;;;;;5021489;28;21532;-77
2023/04/03 01:59:19;;;;;;;3.58;1.45;;;;;;;;;;5019866;28;20119;-77
2023/04/03 02:01:45;;;;;;;7.60;1.85;;;;;;;;;;5017648;28;20049;-77
2023/04/03 02:04:12;;;;;;;8.10;1.70;;;;;;;;;;5025971;28;20045;-76
2023/04/03 02:06:38;;;;;;;4.43;1.83;;;;;;;;;;5018088;28;20045;-77
2023/04/03 02:09:05;;;;;;;5.82;1.83;;;;;;;;;;4998383;28;20394;-77
2023/04/03 02:11:31;;;;;;;6.88;2.17;;;;;;;;;;5015876;28;20041;-77
2023/04/03 02:13:57;;;;;;;3.85;1.52;;;;;;;;;;5018102;28;20497;-77
2023/04/03 02:16:24;;;;;;;7.70;1.95;;;;;;;;;;4998806;28;20606;-77
2023/04/03 02:18:50;;;;;;;6.18;1.80;;;;;;;;;;5016945;28;20037;-79
2023/04/03 02:21:16;;;;;;;5.95;1.80;;;;;;;;;;5012724;28;20172;-77
2023/04/03 02:23:42;;;;;;;7.55;2.03;;;;;;;;;;5009814;28;20045;-77
2023/04/03 02:26:12;;;;;;;5.65;1.90;;;;;;;;;;5004094;28;20041;-77
2023/04/03 02:28:39;;;;;;;8.00;1.95;;;;;;;;;;5003284;28;21230;-77
2023/04/03 02:31:09;;;;;;;6.13;1.58;;;;;;;;;;5013446;28;20720;-77
2023/04/03 02:33:38;;;;;;;9.77;1.55;;;;;;;;;;4998735;28;20041;-80
2023/04/03 02:36:05;;;;;;;6.18;1.60;;;;;;;;;;5011317;28;20044;-77
2023/04/03 02:38:31;;;;;;;4.80;1.63;;;;;;;;;;5001566;28;20075;-77
2023/04/03 02:41:05;;;;;;;9.45;1.85;;;;;;;;;;5012093;28;20124;-77
2023/04/03 02:43:31;;;;;;;6.78;2.22;;;;;;;;;;5012142;28;20165;-78
2023/04/03 02:45:58;;;;;;;6.68;1.80;;;;;;;;;;5006881;28;20053;-77
2023/04/03 02:48:25;;;;;;;8.50;2.00;;;;;;;;;;5005907;28;20051;-77
2023/04/03 02:50:51;;;;;;;4.18;1.60;;;;;;;;;;5005066;28;20037;-77
2023/04/03 02:53:17;;;;;;;7.63;2.25;;;;;;;;;;5004906;28;21874;-77
2023/04/03 02:55:43;;;;;;;6.50;2.03;;;;;;;;;;5008242;28;20102;-77
2023/04/03 02:58:09;;;;;;;5.40;2.38;;;;;;;;;;5001634;28;20038;-77
2023/04/03 03:00:35;;;;;;;7.60;2.15;;;;;;;;;;5011054;28;20096;-77
2023/04/03 03:03:01;;;;;;;7.00;2.03;;;;;;;;;;5012381;28;20942;-77
2023/04/03 03:05:28;;;;;;;8.13;2.22;;;;;;;;;;5018800;28;21684;-77
2023/04/03 03:07:54;;;;;;;9.68;1.70;;;;;;;;;;5004478;28;20040;-77
2023/04/03 03:10:20;;;;;;;4.55;1.48;;;;;;;;;;4988831;28;20045;-77
2023/04/03 03:12:46;;;;;;;3.95;2.20;;;;;;;;;;5004087;28;20045;-77
2023/04/03 03:15:12;;;;;;;8.52;2.13;;;;;;;;;;5008735;28;20081;-77
2023/04/03 03:17:38;;;;;;;11.05;2.50;;;;;;;;;;5010313;28;20053;-77
2023/04/03 03:20:05;;;;;;;4.97;1.90;;;;;;;;;;5005509;28;20049;-77
2023/04/03 03:22:32;;;;;;;6.63;1.92;;;;;;;;;;5005712;28;20497;-77
2023/04/03 03:24:58;;;;;;;4.00;1.98;;;;;;;;;;5005514;28;20075;-77
2023/04/03 03:27:24;;;;;;;4.60;1.80;;;;;;;;;;5010104;28;20049;-77
2023/04/03 03:29:50;;;;;;;9.80;2.20;;;;;;;;;;5010158;28;20045;-76
2023/04/03 03:32:16;;;;;;;8.13;1.90;;;;;;;;;;5009938;28;20154;-77
2023/04/03 03:34:42;;;;;;;6.20;2.00;;;;;;;;;;5011433;28;20041;-77
2023/04/03 03:37:08;;;;;;;6.97;1.70;;;;;;;;;;5005701;28;20052;-77
2023/04/03 03:39:34;;;;;;;6.22;1.80;;;;;;;;;;5002876;28;20517;-77
2023/04/03 03:42:01;;;;;;;9.05;2.15;;;;;;;;;;5004735;28;20056;-77
2023/04/03 03:44:28;;;;;;;5.47;2.22;;;;;;;;;;5013207;28;20379;-76
2023/04/03 03:46:55;;;;;;;6.97;2.40;;;;;;;;;;5008917;28;20049;-77
2023/04/03 03:49:21;;;;;;;6.40;1.98;;;;;;;;;;5009023;28;20041;-78
2023/04/03 03:51:47;;;;;;;10.00;2.05;;;;;;;;;;4991605;28;20083;-77
2023/04/03 03:54:13;;;;;;;7.07;2.67;;;;;;;;;;5007870;28;20040;-77
2023/04/03 03:56:40;;;;;;;9.68;2.00;;;;;;;;;;5010035;28;20394;-77
2023/04/03 03:59:06;;;;;;;6.22;2.10;;;;;;;;;;5012791;28;20041;-77
2023/04/03 04:01:32;;;;;;;3.10;1.80;;;;;;;;;;5022044;28;20579;-78
2023/04/03 04:03:58;;;;;;;3.00;1.77;;;;;;;;;;5023672;28;20055;-77
2023/04/03 04:06:24;;;;;;;6.72;2.17;;;;;;;;;;5008188;28;20131;-78
2023/04/03 04:08:51;;;;;;;7.22;1.95;;;;;;;;;;5020146;28;20073;-78
2023/04/03 04:11:17;;;;;;;6.57;2.10;;;;;;;;;;5019138;28;20156;-78
2023/04/03 04:13:43;;;;;;;10.07;4.70;;;;;;;;;;5020071;28;20135;-78
2023/04/03 04:16:09;;;;;;;7.75;2.22;;;;;;;;;;5011455;28;20065;-82
2023/04/03 04:18:35;;;;;;;7.00;2.25;;;;;;;;;;5028285;28;21311;-82
2023/04/03 04:21:01;;;;;;;7.55;2.47;;;;;;;;;;5030561;28;20037;-82
2023/04/03 04:23:27;;;;;;;11.32;2.10;;;;;;;;;;5028281;28;20072;-82
2023/04/03 04:25:54;;;;;;;9.85;2.65;;;;;;;;;;5030373;28;20037;-82
2023/04/03 04:28:20;;;;;;;8.57;3.55;;;;;;;;;;5031392;28;20041;-82
2023/04/03 04:30:46;;;;;;;7.90;2.53;;;;;;;;;;5033061;28;20119;-82
2023/04/03 04:33:13;;;;;;;8.02;2.35;;;;;;;;;;5029879;28;20111;-81
2023/04/03 04:35:39;;;;;;;7.28;2.53;;;;;;;;;;5028519;28;20040;-83
2023/04/03 04:38:06;;;;;;;9.70;2.13;;;;;;;;;;5021444;28;20454;-81
2023/04/03 04:40:32;;;;;;;5.90;2.35;;;;;;;;;;5023189;28;20044;-81
2023/04/03 04:42:58;;;;;;;6.28;2.58;;;;;;;;;;5025932;28;20075;-81
2023/04/03 04:45:24;;;;;;;7.30;2.60;;;;;;;;;;5026981;28;20072;-82
2023/04/03 04:47:52;;;;;;;13.88;2.50;;;;;;;;;;5011420;28;20159;-81
2023/04/03 04:50:18;;;;;;;8.27;2.30;;;;;;;;;;5026581;28;20049;-82
2023/04/03 04:52:44;;;;;;;6.25;2.40;;;;;;;;;;5025195;28;20156;-81
2023/04/03 04:55:10;;;;;;;6.35;3.08;;;;;;;;;;5020279;28;20565;-81
2023/04/03 04:57:38;;;;;;;10.10;2.70;;;;;;;;;;5015461;28;20041;-82
2023/04/03 05:00:04;;;;;;;11.05;3.05;;;;;;;;;;5017684;28;20057;-81
2023/04/03 05:02:31;;;;;;;11.23;2.85;;;;;;;;;;5026103;28;20049;-82
2023/04/03 05:04:57;;;;;;;10.95;2.70;;;;;;;;;;5024103;28;20099;-80
2023/04/03 05:07:23;;;;;;;6.53;2.35;;;;;;;;;;5017259;28;20053;-81
2023/04/03 05:09:49;;;;;;;7.97;2.42;;;;;;;;;;5018351;28;20040;-82
2023/04/03 05:12:15;;;;;;;6.97;2.55;;;;;;;;;;5016305;28;20041;-81
2023/04/03 05:14:41;;;;;;;6.18;3.13;;;;;;;;;;5023702;28;20041;-82
2023/04/03 05:17:08;;;;;;;6.32;2.70;;;;;;;;;;5026681;28;20056;-81
2023/04/03 05:19:34;;;;;;;8.10;2.70;;;;;;;;;;5019754;28;21079;-81
2023/04/03 05:22:00;;;;;;;10.68;2.95;;;;;;;;;;5019735;28;20640;-81
2023/04/03 05:24:26;;;;;;;8.80;3.05;;;;;;;;;;5019127;28;20037;-81
2023/04/03 05:26:52;;;;;;;6.00;2.67;;;;;;;;;;5024202;28;20123;-81
2023/04/03 05:29:18;;;;;;;10.23;3.92;;;;;;;;;;5025041;28;20045;-81
2023/04/03 05:31:44;;;;;;;10.82;2.72;;;;;;;;;;5021627;28;20042;-81
2023/04/03 05:34:10;;;;;;;7.20;2.70;;;;;;;;;;5025166;28;20175;-82
2023/04/03 05:36:37;;;;;;;6.50;3.40;;;;;;;;;;5019297;28;20616;-82
2023/04/03 05:39:03;;;;;;;7.88;3.15;;;;;;;;;;5022765;28;20044;-82
2023/04/03 05:41:29;;;;;;;7.30;3.42;;;;;;;;;;5020471;28;20049;-82
2023/04/03 05:43:55;;;;;;;7.55;3.20;;;;;;;;;;5015223;28;20642;-81
2023/04/03 05:46:22;;;;;;;6.45;2.63;;;;;;;;;;5024415;28;20045;-82
2023/04/03 05:48:48;;;;;;;13.70;4.63;;;;;;;;;;5002504;28;20045;-81
2023/04/03 05:51:16;;;;;;;10.00;3.10;;;;;;;;;;5002977;28;20045;-82
2023/04/03 05:53:44;;;;;;;5.53;3.08;;;;;;;;;;5021261;28;20069;-82
2023/04/03 05:56:10;;;;;;;6.85;2.63;;;;;;;;;;5029232;28;20119;-81
2023/04/03 05:58:36;;;;;;;10.80;2.67;;;;;;;;;;5011234;28;20064;-81
2023/04/03 06:01:02;;;;;;;8.13;2.53;;;;;;;;;;5026280;28;20087;-82
2023/04/03 06:03:28;;;;;;;9.70;2.83;;;;;;;;;;5019327;28;20497;-81
2023/04/03 06:05:54;;;;;;;8.00;2.42;;;;;;;;;;5021289;28;20041;-81
2023/04/03 06:08:20;;;;;;;10.00;3.47;;;;;;;;;;5004988;28;20136;-82
2023/04/03 06:10:47;;;;;;;6.32;2.70;;;;;;;;;;5023385;28;20040;-81
2023/04/03 06:13:13;;;;;;;6.93;2.45;;;;;;;;;;5026112;28;20092;-81
2023/04/03 06:15:40;;;;;;;8.65;4.05;;;;;;;;;;5027371;28;20068;-83
2023/04/03 06:18:06;;;;;;;10.43;3.55;;;;;;;;;;5025027;28;20052;-81
2023/04/03 06:20:32;;;;;;;10.05;2.60;;;;;;;;;;5037693;28;20065;-81
2023/04/03 06:22:58;;;;;;;10.30;2.95;;;;;;;;;;5031268;28;22123;-81
2023/04/03 06:25:25;;;;;;;8.98;3.17;;;;;;;;;;5009657;28;20037;-73
2023/04/03 06:27:51;;;;;;;9.57;3.17;;;;;;;;;;5018300;28;23220;-75
2023/04/03 06:30:17;;;;;;;9.98;2.78;;;;;;;;;;5017162;28;20040;-73
2023/04/03 06:32:43;;;;;;;8.98;2.60;;;;;;;;;;5000652;28;20459;-72
2023/04/03 06:35:09;;;;;;;11.00;3.15;;;;;;;;;;5012457;28;20065;-73
2023/04/03 06:37:35;;;;;;;7.80;2.97;;;;;;;;;;5012947;28;20050;-72
2023/04/03 06:40:02;;;;;;;6.90;3.08;;;;;;;;;;5010503;28;20107;-73
2023/04/03 06:42:28;;;;;;;9.40;2.50;;;;;;;;;;5011483;28;20118;-73
2023/04/03 06:44:55;;;;;;;6.43;2.63;;;;;;;;;;5014468;28;20041;-73
2023/04/03 06:47:21;;;;;;;7.68;2.70;;;;;;;;;;5014322;28;20130;-73
2023/04/03 06:49:47;;;;;;;6.93;2.53;;;;;;;;;;5014117;28;20041;-71
2023/04/03 06:52:13;;;;;;;5.65;3.22;;;;;;;;;;5014901;28;20068;-75
2023/04/03 06:54:40;;;;;;;7.45;2.88;;;;;;;;;;5014413;28;20099;-75
2023/04/03 06:57:06;;;;;;;12.48;3.90;;;;;;;;;;5012478;28;20056;-75
2023/04/03 06:59:32;;;;;;;10.85;3.67;;;;;;;;;;5012903;28;20099;-75
2023/04/03 07:01:59;;;;;;;6.15;2.65;;;;;;;;;;5015161;28;20052;-75
2023/04/03 07:04:29;;;;;;;8.48;2.83;;;;;;;;;;4997911;28;20108;-75
2023/04/03 07:06:55;;;;;;;11.75;2.53;;;;;;;;;;5012015;28;20494;-75
2023/04/03 07:09:21;;;;;;;8.10;2.63;;;;;;;;;;5008876;28;20041;-77
2023/04/03 07:11:47;;;;;;;5.25;2.60;;;;;;;;;;5017188;28;20048;-77
2023/04/03 07:14:13;;;;;;;7.32;2.70;;;;;;;;;;5018383;28;20073;-77
2023/04/03 07:16:40;;;;;;;8.18;2.38;;;;;;;;;;5020614;28;20052;-77
2023/04/03 07:19:08;;;;;;;8.00;2.42;;;;;;;;;;5018239;28;20493;-77
2023/04/03 07:21:34;;;;;;;9.38;2.10;;;;;;;;;;5009320;28;20048;-77
2023/04/03 07:24:00;;;;;;;10.82;2.25;;;;;;;;;;5018510;28;20044;-77
2023/04/03 07:26:26;;;;;;;5.53;2.13;;;;;;;;;;5018062;28;20494;-77
2023/04/03 07:28:53;;;;;;;8.45;2.88;;;;;;;;;;5018950;28;20041;-77
2023/04/03 07:31:19;;;;;;;9.15;2.10;;;;;;;;;;5014685;28;20037;-77
2023/04/03 07:33:45;;;;;;;10.43;2.40;;;;;;;;;;5000709;28;20060;-77
2023/04/03 07:36:15;;;;;;;6.78;2.33;;;;;;;;;;5018220;28;20045;-77
2023/04/03 07:38:41;;;;;;;7.28;2.42;;;;;;;;;;5018782;28;20055;-77
2023/04/03 07:41:12;;;;;;;10.15;2.38;;;;;;;;;;5019427;28;20143;-77
2023/04/03 07:43:38;;;;;;;6.30;2.25;;;;;;;;;;5017780;28;20055;-77
2023/04/03 07:46:05;;;;;;;11.60;2.75;;;;;;;;;;5015772;28;20049;-76
2023/04/03 07:48:31;;;;;;;5.32;1.85;;;;;;;;;;5014263;28;20055;-76
2023/04/03 07:51:01;;;;;;;7.90;2.22;;;;;;;;;;5014704;28;20055;-76
2023/04/03 07:53:27;;;;;;;5.68;2.40;;;;;;;;;;5001292;28;20029;-76
2023/04/03 07:55:56;;;;;;;4.25;1.55;;;;;;;;;;5018297;28;20077;-76
2023/04/03 07:58:22;;;;;;;9.45;1.60;;;;;;;;;;5015115;28;20045;-76
2023/04/03 08:00:48;;;;;;;9.20;2.30;;;;;;;;;;5003068;28;20040;-76
2023/04/03 08:03:18;;;;;;;5.50;2.08;;;;;;;;;;5016764;28;20464;-77
2023/04/03 08:05:45;;;;;;;4.97;2.28;;;;;;;;;;5018527;28;20597;-76
2023/04/03 08:08:12;;;;;;;6.63;3.05;;;;;;;;;;5019052;28;20485;-76
2023/04/03 08:10:38;;;;;;;5.55;2.70;;;;;;;;;;5017941;28;20056;-76
2023/04/03 08:13:05;;;;;;;5.57;2.20;;;;;;;;;;5002334;28;20076;-76
2023/04/03 08:15:31;;;;;;;6.72;2.22;;;;;;;;;;5018155;28;20083;-76
2023/04/03 08:17:58;;;;;;;5.30;2.25;;;;;;;;;;5016557;28;20749;-76
2023/04/03 08:20:24;;;;;;;7.53;2.22;;;;;;;;;;5019067;28;20043;-76
2023/04/03 08:22:50;;;;;;;7.20;2.03;;;;;;;;;;5016457;28;20056;-76
2023/04/03 08:25:17;;;;;;;7.10;2.05;;;;;;;;;;5002867;28;20052;-76
2023/04/03 08:27:43;;;;;;;7.35;2.20;;;;;;;;;;4998003;28;20051;-76
2023/04/03 08:30:10;;;;;;;6.95;2.40;;;;;;;;;;5018722;28;20037;-76
2023/04/03 08:32:36;;;;;;;5.30;2.05;;;;;;;;;;5017615;28;21717;-76
2023/04/03 08:35:03;;;;;;;5.95;1.73;;;;;;;;;;5017775;28;20045;-76
2023/04/03 08:37:29;;;;;;;6.57;1.73;;;;;;;;;;5002886;28;20049;-76
2023/04/03 08:39:55;;;;;;;4.95;2.15;;;;;;;;;;5017120;28;20600;-76
2023/04/03 08:42:21;;;;;;;8.68;2.10;;;;;;;;;;5018327;28;20053;-76
2023/04/03 08:44:50;;;;;;;7.45;2.03;;;;;;;;;;5025367;28;20531;-76
2023/04/03 08:47:25;;;;;;;5.72;1.90;;;;;;;;;;5018865;28;20378;-76
2023/04/03 08:49:59;;;;;;;4.35;1.80;;;;;;;;;;5017821;28;20053;-76
2023/04/03 08:52:37;;;;;;;7.07;1.98;;;;;;;;;;5017121;28;20646;-76
2023/04/03 08:55:08;;;;;;;5.90;1.80;;;;;;;;;;5016679;28;20049;-77
2023/04/03 08:57:36;;;;;;;9.18;2.42;;;;;;;;;;5018642;28;20040;-77
2023/04/03 09:00:14;;;;;;;6.03;1.90;;;;;;;;;;5018533;28;20580;-76
2023/04/03 09:02:48;;;;;;;3.60;1.52;;;;;;;;;;5018208;28;20389;-76
2023/04/03 09:05:16;;;;;;;5.55;1.50;;;;;;;;;;5018120;28;20037;-77
2023/04/03 09:07:48;;;;;;;7.53;1.75;;;;;;;;;;5000309;28;20060;-77
2023/04/03 09:10:15;;;;;;;4.47;1.40;;;;;;;;;;5020289;28;20139;-76
2023/04/03 09:12:53;;;;;;;6.90;1.52;;;;;;;;;;5005028;28;20581;-77
2023/04/03 09:15:22;;;;;;;5.30;1.40;;;;;;;;;;5021161;28;20118;-76
2023/04/03 09:18:05;;;;;;;3.97;1.40;;;;;;;;;;5010754;28;20053;-77
2023/04/03 09:20:38;;;;;;;8.02;1.67;;;;;;;;;;5020928;28;20056;-77
2023/04/03 09:23:14;;;;;;;5.20;1.55;;;;;;;;;;5003878;28;20052;-76
2023/04/03 09:25:41;;;;;;;4.28;1.67;;;;;;;;;;5021847;28;20053;-77
2023/04/03 09:28:09;;;;;;;6.25;1.63;;;;;;;;;;5020978;28;20049;-77
2023/04/03 09:30:36;;;;;;;5.15;1.63;;;;;;;;;;5020841;28;20493;-75
2023/04/03 09:33:02;;;;;;;3.95;1.73;;;;;;;;;;5019278;28;20047;-76
2023/04/03 09:35:31;;;;;;;3.30;1.90;;;;;;;;;;5021774;28;20056;-76
2023/04/03 09:38:01;;;;;;;5.82;2.03;;;;;;;;;;5022059;28;20059;-75
2023/04/03 09:40:30;;;;;;;4.43;1.55;;;;;;;;;;5020520;28;20045;-75
2023/04/03 09:42:58;;;;;;;6.32;1.80;;;;;;;;;;5019059;28;20126;-75
2023/04/03 09:45:28;;;;;;;4.03;1.73;;;;;;;;;;5022137;28;20049;-75
2023/04/03 09:48:18;;;;;;;3.33;1.80;;;;;;;;;;5018738;28;20055;-75
2023/04/03 09:50:50;;;;;;;6.10;1.85;;;;;;;;;;5015100;28;20053;-75
2023/04/03 09:53:35;;;;;;;2.63;1.42;;;;;;;;;;5009231;28;20492;-76
2023/04/03 09:56:03;;;;;;;3.13;1.50;;;;;;;;;;5003479;28;20048;-75
2023/04/03 09:58:31;;;;;;;3.90;1.50;;;;;;;;;;5021733;28;20049;-75
2023/04/03 10:00:58;;;;;;;3.80;1.98;;;;;;;;;;5021568;28;20064;-75
2023/04/03 10:03:32;;;;;;;3.33;1.33;;;;;;;;;;5000843;28;20041;-75
2023/04/03 10:05:59;;;;;;;2.50;1.20;;;;;;;;;;5021256;28;20065;-75
2023/04/03 10:08:32;;;;;;;5.22;1.58;;;;;;;;;;5005126;28;20044;-75
2023/04/03 10:11:10;;;;;;;3.58;1.20;;;;;;;;;;5003570;28;20037;-75
2023/04/03 10:13:36;;;;;;;2.85;1.38;;;;;;;;;;5002896;28;20068;-75
2023/04/03 10:16:08;;;;;;;5.95;1.52;;;;;;;;;;5020235;28;22324;-75
2023/04/03 10:18:46;;;;;;;4.90;1.67;;;;;;;;;;5020744;28;20421;-75
2023/04/03 10:21:20;;;;;;;4.53;1.42;;;;;;;;;;5007612;28;20737;-75
2023/04/03 10:23:51;;;;;;;3.40;1.63;;;;;;;;;;5020804;28;20080;-75
2023/04/03 10:26:24;;;;;;;4.82;1.45;;;;;;;;;;5020259;28;20175;-75
2023/04/03 10:28:53;;;;;;;4.80;1.33;;;;;;;;;;5020604;28;20057;-75
2023/04/03 10:31:26;;;;;;;5.18;1.33;;;;;;;;;;5020800;28;20048;-75
2023/04/03 10:34:11;;;;;;;2.65;1.13;;;;;;;;;;5022972;28;20076;-75
2023/04/03 10:36:46;;;;;;;2.10;1.10;;;;;;;;;;5016682;28;20053;-75
2023/04/03 10:39:18;;;;;;;4.00;1.30;;;;;;;;;;5019517;28;20105;-75
2023/04/03 10:41:59;;;;;;;6.57;1.50;;;;;;;;;;5020649;28;20060;-75
2023/04/03 10:44:37;;;;;;;5.07;1.40;;;;;;;;;;5019329;28;20079;-75
2023/04/03 10:47:24;;;;;;;3.65;1.58;;;;;;;;;;5019592;28;20050;-75
2023/04/03 10:50:00;;;;;;;4.18;1.23;;;;;;;;;;5019344;28;20571;-75
2023/04/03 10:52:26;;;;;;;3.30;1.30;;;;;;;;;;5019726;28;20797;-75
2023/04/03 10:54:55;;;;;;;4.75;1.38;;;;;;;;;;5017878;28;21091;-75
2023/04/03 10:57:24;;;;;;;5.43;1.55;;;;;;;;;;5019671;28;20089;-75
2023/04/03 11:00:13;;;;;;;4.72;1.40;;;;;;;;;;5019853;28;20054;-76
2023/04/03 11:02:53;;;;;;;5.03;1.30;;;;;;;;;;5019012;28;20748;-76
2023/04/03 11:05:27;;;;;;;3.97;1.48;;;;;;;;;;5019603;28;20416;-76
2023/04/03 11:07:53;;;;;;;;;;;;;;;;;;5019500;28;20044;-75
2023/04/03 11:10:19;;;;;;;1.25;0.82;;;;;;;;;;5019060;28;20014;-75
2023/04/03 11:13:02;;;;;;;2.65;1.08;;;;;;;;;;5018061;28;20049;-76
2023/04/03 11:15:29;;;;;;;2.85;1.17;;;;;;;;;;5006791;28;20129;-76
2023/04/03 11:17:58;;;;;;;2.35;1.00;;;;;;;;;;5018346;28;20057;-76
2023/04/03 11:20:27;;;;;;;8.20;1.70;;;;;;;;;;5019531;28;20067;-76
2023/04/03 11:22:59;;;;;;;2.20;0.90;;;;;;;;;;5018519;28;20160;-80
2023/04/03 11:25:26;;;;;;;2.35;0.98;;;;;;;;;;5017360;28;20086;-80
2023/04/03 11:27:56;;;;;;;6.60;1.52;;;;;;;;;;5020843;28;20048;-80
2023/04/03 11:30:29;;;;;;;2.80;1.27;;;;;;;;;;5019821;28;20091;-80
2023/04/03 11:33:04;;;;;;;2.13;1.10;;;;;;;;;;5015674;28;20052;-81
2023/04/03 11:35:31;;;;;;;1.98;1.10;;;;;;;;;;5004559;28;20116;-80
2023/04/03 11:37:58;;;;;;;1.85;1.02;;;;;;;;;;5007447;28;20049;-79
2023/04/03 11:40:33;;;;;;;3.28;1.30;;;;;;;;;;5009379;28;20049;-79
2023/04/03 11:42:59;;;;;;;2.03;1.20;;;;;;;;;;5010364;28;20072;-80
2023/04/03 11:45:25;;;;;;;4.32;0.88;;;;;;;;;;5012852;28;22012;-81
2023/04/03 11:47:54;;;;;;;2.97;1.27;;;;;;;;;;5008642;28;20410;-81
2023/04/03 11:50:41;;;;;;;2.95;1.42;;;;;;;;;;4989223;28;20507;-81
2023/04/03 11:53:08;;;;;;;12.52;1.23;;;;;;;;;;5008142;28;20102;-80
2023/04/03 11:55:35;;;;;;;3.63;1.00;;;;;;;;;;5012408;28;20069;-81
2023/04/03 11:58:01;;;;;;;4.30;1.20;;;;;;;;;;5011210;28;20738;-82
2023/04/03 12:00:46;;;;;;;2.67;1.10;;;;;;;;;;5010388;28;20140;-82
2023/04/03 12:03:25;;;;;;;1.52;1.00;;;;;;;;;;5016239;28;20167;-82
2023/04/03 12:05:54;;;;;;;3.45;1.20;;;;;;;;;;5015945;28;20156;-77
2023/04/03 12:08:26;;;;;;;4.15;1.10;;;;;;;;;;5014569;28;20052;-82
2023/04/03 12:11:11;;;;;;;2.50;0.90;;;;;;;;;;5008822;28;20140;-81
2023/04/03 12:13:42;;;;;;;2.15;0.80;;;;;;;;;;5012377;28;20048;-81
2023/04/03 12:16:19;;;;;;;1.92;0.80;;;;;;;;;;5015172;28;20058;-82
2023/04/03 12:18:55;;;;;;;2.80;1.38;;;;;;;;;;5009298;28;20757;-81
2023/04/03 12:21:22;;;;;;;5.20;1.63;;;;;;;;;;5010111;28;20052;-80
2023/04/03 12:24:01;;;;;;;1.95;1.30;;;;;;;;;;5012029;28;20107;-81
2023/04/03 12:26:32;;;;;;;5.18;1.33;;;;;;;;;;5010321;28;20540;-79
2023/04/03 12:28:59;;;;;;;5.80;1.70;;;;;;;;;;4990107;28;20873;-79
2023/04/03 12:31:34;;;;;;;3.38;1.20;;;;;;;;;;5007667;28;20155;-79
2023/04/03 12:34:07;;;;;;;2.42;1.30;;;;;;;;;;5008330;28;20049;-79
2023/04/03 12:36:43;;;;;;;3.15;1.60;;;;;;;;;;5006767;28;20049;-79
2023/04/03 12:39:15;;;;;;;5.60;1.70;;;;;;;;;;5008308;28;20045;-79
2023/04/03 12:41:46;;;;;;;3.00;1.38;;;;;;;;;;4996083;28;21271;-79
2023/04/03 12:44:31;;;;;;;5.47;1.10;;;;;;;;;;5007490;28;20997;-79
2023/04/03 12:47:00;;;;;;;3.63;1.35;;;;;;;;;;5010065;28;20041;-79
2023/04/03 12:49:29;;;;;;;10.32;1.20;;;;;;;;;;5006971;28;20829;-79
2023/04/03 12:51:56;;;;;;;2.58;1.13;;;;;;;;;;5008714;28;20045;-79
2023/04/03 12:54:42;;;;;;;4.63;1.50;;;;;;;;;;5010149;28;20156;-79
2023/04/03 12:57:19;;;;;;;2.80;1.20;;;;;;;;;;5007690;28;20447;-79
2023/04/03 12:59:46;;;;;;;4.05;1.40;;;;;;;;;;5009135;28;20045;-79
2023/04/03 13:02:33;;;;;;;4.20;1.50;;;;;;;;;;5010190;28;20045;-79
2023/04/03 13:05:00;;;;;;;2.53;1.25;;;;;;;;;;5011995;28;20199;-78
2023/04/03 13:07:30;;;;;;;3.05;1.02;;;;;;;;;;5013284;28;20048;-79
2023/04/03 13:10:00;;;;;;;2.58;1.00;;;;;;;;;;5011698;28;20462;-78
2023/04/03 13:12:26;;;;;;;2.72;1.10;;;;;;;;;;5011145;28;20473;-81
2023/04/03 13:14:53;;;;;;;2.63;0.75;;;;;;;;;;4993808;28;20600;-81
2023/04/03 13:17:21;;;;;;;3.15;1.00;;;;;;;;;;5010922;28;20417;-80
2023/04/03 13:19:47;;;;;;;3.97;0.88;;;;;;;;;;4990008;28;20083;-80
2023/04/03 13:22:33;;;;;;;2.50;1.15;;;;;;;;;;5008268;28;20140;-81
2023/04/03 13:25:02;;;;;;;2.20;0.90;;;;;;;;;;5006134;28;20078;-80
2023/04/03 13:27:30;;;;;;;3.35;1.15;;;;;;;;;;5006398;28;20151;-80
2023/04/03 13:29:57;;;;;;;3.75;0.85;;;;;;;;;;5005767;28;20067;-80
2023/04/03 13:32:25;;;;;;;3.30;0.90;;;;;;;;;;5010526;28;20044;-80
2023/04/03 13:34:51;;;;;;;5.07;1.02;;;;;;;;;;5007684;28;20041;-80
2023/04/03 13:37:35;;;;;;;5.88;1.10;;;;;;;;;;5006709;28;20651;-80
2023/04/03 13:40:02;;;;;;;;;;;;;;;;;;5009496;28;20046;-80
2023/04/03 13:42:32;;;;;;;3.08;1.00;;;;;;;;;;5008085;28;19929;-80
2023/04/03 13:45:16;;;;;;;4.10;1.00;;;;;;;;;;5008032;28;20049;-80
2023/04/03 13:47:43;;;;;;;3.83;1.35;;;;;;;;;;5008412;28;21372;-80
2023/04/03 13:50:12;;;;;;;3.13;1.00;;;;;;;;;;5006161;28;20033;-80
2023/04/03 13:52:43;;;;;;;2.58;1.10;;;;;;;;;;5006351;28;20132;-80
2023/04/03 13:55:18;;;;;;;2.15;1.15;;;;;;;;;;5000976;28;20140;-80
2023/04/03 13:57:59;;;;;;;2.42;1.00;;;;;;;;;;5008472;28;20525;-82
2023/04/03 14:00:31;;;;;;;1.95;1.02;;;;;;;;;;5009704;28;20049;-80
2023/04/03 14:02:58;;;;;;;1.70;1.17;;;;;;;;;;5011370;28;20045;-82
2023/04/03 14:05:26;;;;;;;1.88;1.05;;;;;;;;;;5011519;28;20102;-82
2023/04/03 14:07:52;;;;;;;1.80;1.13;;;;;;;;;;5009330;28;20247;-82
2023/04/03 14:10:18;;;;;;;2.15;0.80;;;;;;;;;;5012426;28;20073;-83
2023/04/03 14:12:45;;;;;;;1.63;0.80;;;;;;;;;;5009686;28;20418;-83
2023/04/03 14:15:17;;;;;;;2.10;0.90;;;;;;;;;;5013339;28;20053;-82
2023/04/03 14:17:43;;;;;;;1.67;0.80;;;;;;;;;;5028660;28;20069;-82
2023/04/03 14:20:17;;;;;;;1.95;1.00;;;;;;;;;;5010541;28;20068;-83
2023/04/03 14:22:43;;;;;;;1.27;0.90;;;;;;;;;;5017171;28;20090;-83
2023/04/03 14:25:09;;;;;;;2.80;0.90;;;;;;;;;;5012618;28;20049;-81
2023/04/03 14:27:46;;;;;;;1.73;0.70;;;;;;;;;;4998432;28;20444;-82
2023/04/03 14:30:18;;;;;;;3.25;0.98;;;;;;;;;;5008827;28;20045;-81
2023/04/03 14:32:44;;;;;;;2.30;0.70;;;;;;;;;;5012526;28;20405;-82
2023/04/03 14:35:10;;;;;;;1.25;0.73;;;;;;;;;;4996124;28;20040;-82
2023/04/03 14:37:37;;;;;;;2.65;0.93;;;;;;;;;;5012837;28;20041;-81
2023/04/03 14:40:04;;;;;;;1.30;0.60;;;;;;;;;;5012215;28;20045;-81
2023/04/03 14:42:32;;;;;;;2.35;0.80;;;;;;;;;;5010897;28;20045;-81
2023/04/03 14:44:59;;;;;;;4.13;1.17;;;;;;;;;;5012107;28;20057;-81
2023/04/03 14:47:27;;;;;;;1.75;0.90;;;;;;;;;;5012584;28;20537;-81
2023/04/03 14:49:53;;;;;;;1.45;0.75;;;;;;;;;;5011956;28;20081;-81
2023/04/03 14:52:25;;;;;;;2.45;0.90;;;;;;;;;;5008997;28;20133;-80